Time;durP1;ratioP1;P1;durP2;ratioP2;P2;SDS_P1;SDS_P2;PMS_P1;PMS_P2;Temp;Humidity;BMP_temperature;BMP_pressure;BME280_temperature;BME280_humidity;BME280_pressure;Samples;Min_cycle;Max_cycle;Signal;HPM_P1;HPM_P2
2021/12/30 00:00:37;;;;;;;0.00;0.00;;;;;;;;;;4974869;28;20206;-74
2021/12/30 00:03:06;;;;;;;0.00;0.00;;;;;;;;;;4976851;28;20205;-74
2021/12/30 00:05:35;;;;;;;0.00;0.00;;;;;;;;;;4977164;28;20198;-74
2021/12/30 00:08:04;;;;;;;0.00;0.00;;;;;;;;;;4976378;28;20629;-74
2021/12/30 00:10:32;;;;;;;0.00;0.00;;;;;;;;;;4986410;28;20734;-74
2021/12/30 00:13:01;;;;;;;0.00;0.00;;;;;;;;;;4968464;28;20277;-74
2021/12/30 00:15:31;;;;;;;0.00;0.00;;;;;;;;;;4968778;28;20587;-76
2021/12/30 00:17:59;;;;;;;0.00;0.00;;;;;;;;;;4976257;28;20230;-75
2021/12/30 00:20:28;;;;;;;0.00;0.00;;;;;;;;;;4987252;28;20212;-74
2021/12/30 00:22:56;;;;;;;0.00;0.00;;;;;;;;;;4995771;28;20205;-72
2021/12/30 00:25:24;;;;;;;0.00;0.00;;;;;;;;;;4994802;28;20197;-74
2021/12/30 00:27:53;;;;;;;0.00;0.00;;;;;;;;;;4973089;28;20647;-74
2021/12/30 00:30:21;;;;;;;0.00;0.00;;;;;;;;;;4986762;28;20209;-73
2021/12/30 00:32:51;;;;;;;0.00;0.00;;;;;;;;;;4995824;28;20209;-74
2021/12/30 00:35:19;;;;;;;0.00;0.00;;;;;;;;;;4995388;28;20197;-71
2021/12/30 00:37:48;;;;;;;0.00;0.00;;;;;;;;;;4995306;28;20752;-72
2021/12/30 00:40:16;;;;;;;0.00;0.00;;;;;;;;;;4981743;28;20575;-74
2021/12/30 00:42:45;;;;;;;0.00;0.00;;;;;;;;;;4971438;28;20262;-74
2021/12/30 00:45:13;;;;;;;0.00;0.00;;;;;;;;;;4984310;28;20669;-74
2021/12/30 00:47:41;;;;;;;0.00;0.00;;;;;;;;;;4985577;28;20943;-75
2021/12/30 00:50:12;;;;;;;0.00;0.00;;;;;;;;;;4986672;28;20197;-73
2021/12/30 00:52:40;;;;;;;0.00;0.00;;;;;;;;;;4983208;28;20202;-75
2021/12/30 00:55:09;;;;;;;0.00;0.00;;;;;;;;;;4975857;28;20202;-75
2021/12/30 00:57:41;;;;;;;0.00;0.00;;;;;;;;;;4976221;28;20225;-73
2021/12/30 01:00:11;;;;;;;0.00;0.00;;;;;;;;;;4974961;28;20214;-75
2021/12/30 01:02:40;;;;;;;0.00;0.00;;;;;;;;;;4975315;28;20202;-73
2021/12/30 01:05:09;;;;;;;0.17;0.10;;;;;;;;;;4975551;28;20220;-73
2021/12/30 01:07:39;;;;;;;0.00;0.00;;;;;;;;;;4975808;28;20681;-73
2021/12/30 01:10:09;;;;;;;0.00;0.00;;;;;;;;;;4984411;28;20197;-73
2021/12/30 01:12:38;;;;;;;0.27;0.10;;;;;;;;;;4988872;28;20201;-74
2021/12/30 01:15:11;;;;;;;0.10;0.10;;;;;;;;;;4969945;28;20253;-74
2021/12/30 01:17:47;;;;;;;0.00;0.00;;;;;;;;;;4967930;28;20227;-73
2021/12/30 01:20:17;;;;;;;0.00;0.00;;;;;;;;;;4960931;28;20254;-73
2021/12/30 01:22:48;;;;;;;0.10;0.10;;;;;;;;;;4972492;28;20864;-73
2021/12/30 01:25:19;;;;;;;0.00;0.00;;;;;;;;;;4967290;28;20202;-73
2021/12/30 01:27:48;;;;;;;0.10;0.07;;;;;;;;;;4964823;28;20246;-72
2021/12/30 01:30:19;;;;;;;0.63;0.00;;;;;;;;;;4974859;28;20213;-73
2021/12/30 01:32:47;;;;;;;0.10;0.10;;;;;;;;;;4970364;28;20207;-73
2021/12/30 01:35:22;;;;;;;0.00;0.00;;;;;;;;;;4967899;28;20244;-74
2021/12/30 01:37:53;;;;;;;0.00;0.00;;;;;;;;;;4967297;28;20643;-74
2021/12/30 01:40:22;;;;;;;0.30;0.00;;;;;;;;;;4963877;28;20279;-72
2021/12/30 01:42:51;;;;;;;0.40;0.10;;;;;;;;;;4964767;28;20260;-73
2021/12/30 01:45:20;;;;;;;0.20;0.20;;;;;;;;;;4963806;28;20203;-74
2021/12/30 01:47:52;;;;;;;0.03;0.03;;;;;;;;;;4968322;28;20307;-74
2021/12/30 01:50:20;;;;;;;0.53;0.10;;;;;;;;;;4957628;28;20211;-73
2021/12/30 01:52:49;;;;;;;0.37;0.20;;;;;;;;;;4968889;28;20263;-75
2021/12/30 01:55:19;;;;;;;0.40;0.20;;;;;;;;;;4994102;28;20256;-72
2021/12/30 01:57:48;;;;;;;0.10;0.10;;;;;;;;;;4994137;28;20228;-74
2021/12/30 02:00:18;;;;;;;0.10;0.03;;;;;;;;;;4983642;28;20268;-74
2021/12/30 02:02:46;;;;;;;0.10;0.10;;;;;;;;;;4976916;28;20670;-75
2021/12/30 02:05:15;;;;;;;0.10;0.10;;;;;;;;;;4992089;28;20233;-73
2021/12/30 02:07:44;;;;;;;0.40;0.20;;;;;;;;;;4988619;28;20292;-73
2021/12/30 02:10:14;;;;;;;0.23;0.23;;;;;;;;;;4973017;28;20253;-75
2021/12/30 02:12:46;;;;;;;0.17;0.10;;;;;;;;;;4974424;28;20260;-72
2021/12/30 02:15:16;;;;;;;0.33;0.33;;;;;;;;;;4980354;28;20205;-75
2021/12/30 02:17:45;;;;;;;0.20;0.20;;;;;;;;;;4980632;28;20225;-73
2021/12/30 02:20:35;;;;;;;0.33;0.20;;;;;;;;;;4980893;28;20209;-73
2021/12/30 02:23:03;;;;;;;0.30;0.27;;;;;;;;;;4979531;28;20198;-73
2021/12/30 02:25:32;;;;;;;0.30;0.20;;;;;;;;;;4981008;28;20248;-73
2021/12/30 02:28:00;;;;;;;0.97;0.10;;;;;;;;;;4980702;28;20347;-74
2021/12/30 02:30:28;;;;;;;0.30;0.20;;;;;;;;;;4980918;28;20668;-74
2021/12/30 02:32:57;;;;;;;0.10;0.10;;;;;;;;;;4980588;28;20384;-73
2021/12/30 02:35:27;;;;;;;0.10;0.10;;;;;;;;;;4961513;29;20253;-73
2021/12/30 02:37:55;;;;;;;0.10;0.10;;;;;;;;;;4971624;28;20701;-74
2021/12/30 02:40:26;;;;;;;0.77;0.10;;;;;;;;;;4978670;28;20289;-75
2021/12/30 02:42:55;;;;;;;0.30;0.13;;;;;;;;;;4980523;28;20558;-73
2021/12/30 02:45:24;;;;;;;0.23;0.10;;;;;;;;;;4965891;28;20210;-73
2021/12/30 02:47:52;;;;;;;0.23;0.23;;;;;;;;;;4979427;28;20221;-74
2021/12/30 02:50:20;;;;;;;0.93;0.20;;;;;;;;;;4986711;28;20197;-74
2021/12/30 02:52:50;;;;;;;0.47;0.20;;;;;;;;;;4998416;28;20674;-74
2021/12/30 02:55:19;;;;;;;0.57;0.13;;;;;;;;;;4980348;28;20208;-74
2021/12/30 02:57:47;;;;;;;0.87;0.20;;;;;;;;;;4980484;28;20230;-73
2021/12/30 03:00:16;;;;;;;0.77;0.17;;;;;;;;;;4978980;28;20236;-73
2021/12/30 03:02:44;;;;;;;0.40;0.30;;;;;;;;;;4980502;28;20201;-74
2021/12/30 03:05:16;;;;;;;1.03;0.40;;;;;;;;;;4980423;28;20205;-72
2021/12/30 03:07:44;;;;;;;0.20;0.20;;;;;;;;;;4980739;28;20225;-73
2021/12/30 03:10:18;;;;;;;0.47;0.30;;;;;;;;;;4983917;28;20201;-73
2021/12/30 03:12:52;;;;;;;1.27;0.40;;;;;;;;;;4980540;28;20724;-75
2021/12/30 03:15:20;;;;;;;0.77;0.30;;;;;;;;;;4980272;28;20212;-74
2021/12/30 03:17:49;;;;;;;0.23;0.23;;;;;;;;;;4980209;28;20272;-75
2021/12/30 03:20:17;;;;;;;0.20;0.20;;;;;;;;;;4980175;28;20684;-72
2021/12/30 03:22:46;;;;;;;0.97;0.30;;;;;;;;;;4980296;28;20202;-73
2021/12/30 03:25:16;;;;;;;0.77;0.23;;;;;;;;;;4979088;28;20205;-72
2021/12/30 03:27:46;;;;;;;0.47;0.23;;;;;;;;;;4976915;28;20261;-73
2021/12/30 03:30:16;;;;;;;0.57;0.20;;;;;;;;;;4977324;28;20210;-74
2021/12/30 03:32:44;;;;;;;0.20;0.10;;;;;;;;;;4977369;28;20210;-74
2021/12/30 03:35:13;;;;;;;0.30;0.20;;;;;;;;;;4984815;28;20208;-72
2021/12/30 03:37:41;;;;;;;0.47;0.20;;;;;;;;;;4978822;28;20764;-72
2021/12/30 03:40:12;;;;;;;1.50;0.37;;;;;;;;;;4979047;28;20270;-74
2021/12/30 03:42:40;;;;;;;0.53;0.23;;;;;;;;;;4977198;28;20264;-72
2021/12/30 03:45:11;;;;;;;1.00;0.20;;;;;;;;;;4975713;28;20553;-74
2021/12/30 03:47:42;;;;;;;0.93;0.27;;;;;;;;;;4977016;28;20233;-73
2021/12/30 03:50:17;;;;;;;1.20;0.23;;;;;;;;;;4986991;28;20273;-73
2021/12/30 03:52:46;;;;;;;0.23;0.10;;;;;;;;;;4977689;28;20212;-74
2021/12/30 03:55:15;;;;;;;0.63;0.23;;;;;;;;;;4976111;28;20665;-74
2021/12/30 03:57:44;;;;;;;0.63;0.30;;;;;;;;;;4976374;28;20696;-74
2021/12/30 04:00:14;;;;;;;0.40;0.20;;;;;;;;;;4976053;28;20226;-73
2021/12/30 04:02:43;;;;;;;0.43;0.20;;;;;;;;;;4976321;28;20552;-74
2021/12/30 04:05:13;;;;;;;0.20;0.20;;;;;;;;;;4975622;28;20273;-73
2021/12/30 04:07:41;;;;;;;1.20;0.20;;;;;;;;;;4964923;28;20217;-74
2021/12/30 04:10:13;;;;;;;0.57;0.20;;;;;;;;;;4976032;28;20216;-74
2021/12/30 04:12:41;;;;;;;0.30;0.20;;;;;;;;;;4976479;28;20201;-73
2021/12/30 04:15:10;;;;;;;0.27;0.20;;;;;;;;;;4976691;28;20662;-71
2021/12/30 04:17:40;;;;;;;0.47;0.10;;;;;;;;;;4974186;28;20225;-74
2021/12/30 04:20:10;;;;;;;0.20;0.13;;;;;;;;;;4977487;28;20222;-72
2021/12/30 04:22:40;;;;;;;0.57;0.10;;;;;;;;;;4976100;28;20665;-72
2021/12/30 04:25:10;;;;;;;0.53;0.20;;;;;;;;;;4975770;28;20257;-74
2021/12/30 04:27:39;;;;;;;1.20;0.20;;;;;;;;;;4976054;28;20287;-72
2021/12/30 04:30:08;;;;;;;0.93;0.20;;;;;;;;;;4975368;28;20205;-74
2021/12/30 04:32:37;;;;;;;0.77;0.10;;;;;;;;;;4975928;28;20197;-74
2021/12/30 04:35:08;;;;;;;0.33;0.17;;;;;;;;;;4975970;28;20233;-71
2021/12/30 04:37:40;;;;;;;0.17;0.10;;;;;;;;;;4975003;28;20225;-72
2021/12/30 04:40:11;;;;;;;0.40;0.30;;;;;;;;;;4975768;28;20557;-71
2021/12/30 04:42:39;;;;;;;0.30;0.30;;;;;;;;;;4975622;28;20204;-73
2021/12/30 04:45:08;;;;;;;0.87;0.20;;;;;;;;;;4976070;28;20198;-74
2021/12/30 04:47:38;;;;;;;0.57;0.33;;;;;;;;;;4975051;28;20230;-74
2021/12/30 04:50:10;;;;;;;0.73;0.20;;;;;;;;;;4980937;28;20598;-75
2021/12/30 04:52:38;;;;;;;1.23;0.40;;;;;;;;;;4975508;28;20665;-74
2021/12/30 04:55:07;;;;;;;0.17;0.17;;;;;;;;;;4975168;28;20724;-72
2021/12/30 04:57:36;;;;;;;0.73;0.10;;;;;;;;;;4975470;28;20296;-73
2021/12/30 05:00:05;;;;;;;0.27;0.27;;;;;;;;;;4974530;28;20284;-72
2021/12/30 05:02:51;;;;;;;0.50;0.33;;;;;;;;;;4975524;28;20197;-74
2021/12/30 05:05:21;;;;;;;1.07;0.30;;;;;;;;;;4978438;28;20282;-73
2021/12/30 05:07:49;;;;;;;1.60;0.40;;;;;;;;;;4975297;28;20229;-73
2021/12/30 05:10:18;;;;;;;0.50;0.30;;;;;;;;;;4978176;28;20253;-72
2021/12/30 05:12:46;;;;;;;0.53;0.43;;;;;;;;;;4975085;28;20206;-73
2021/12/30 05:15:15;;;;;;;1.60;0.50;;;;;;;;;;4971043;28;20256;-74
2021/12/30 05:17:43;;;;;;;0.73;0.40;;;;;;;;;;4974779;28;20226;-73
2021/12/30 05:20:13;;;;;;;1.30;0.33;;;;;;;;;;4974747;28;20249;-73
2021/12/30 05:22:43;;;;;;;1.03;0.40;;;;;;;;;;4968181;28;20269;-74
2021/12/30 05:25:12;;;;;;;1.17;0.30;;;;;;;;;;4973511;28;20201;-72
2021/12/30 05:27:41;;;;;;;1.13;0.40;;;;;;;;;;4974344;28;20265;-74
2021/12/30 05:30:10;;;;;;;1.70;0.53;;;;;;;;;;4974425;28;20536;-73
2021/12/30 05:32:39;;;;;;;1.60;0.37;;;;;;;;;;4970866;28;20194;-73
2021/12/30 05:35:08;;;;;;;2.47;0.47;;;;;;;;;;4990316;28;20208;-72
2021/12/30 05:37:37;;;;;;;1.50;0.60;;;;;;;;;;4977087;28;20308;-73
2021/12/30 05:40:10;;;;;;;0.73;0.33;;;;;;;;;;4980540;28;20610;-74
2021/12/30 05:42:38;;;;;;;1.43;0.50;;;;;;;;;;4967283;28;20544;-73
2021/12/30 05:45:08;;;;;;;0.43;0.40;;;;;;;;;;4977647;28;20205;-73
2021/12/30 05:47:36;;;;;;;1.40;0.50;;;;;;;;;;4974501;28;20220;-72
2021/12/30 05:50:06;;;;;;;2.23;0.67;;;;;;;;;;4973793;28;20252;-74
2021/12/30 05:52:34;;;;;;;2.20;0.60;;;;;;;;;;4974743;28;20256;-74
2021/12/30 05:55:03;;;;;;;0.67;0.50;;;;;;;;;;4975319;28;20202;-73
2021/12/30 05:57:33;;;;;;;0.77;0.40;;;;;;;;;;4974409;28;20217;-73
2021/12/30 06:00:01;;;;;;;1.60;0.43;;;;;;;;;;4973832;28;20229;-72
2021/12/30 06:02:30;;;;;;;1.23;0.50;;;;;;;;;;4970331;28;20210;-71
2021/12/30 06:04:58;;;;;;;0.77;0.47;;;;;;;;;;4972559;28;20218;-73
2021/12/30 06:07:27;;;;;;;0.37;0.20;;;;;;;;;;4961144;28;20280;-72
2021/12/30 06:09:55;;;;;;;0.53;0.50;;;;;;;;;;4974594;28;20201;-73
2021/12/30 06:12:24;;;;;;;0.57;0.47;;;;;;;;;;4970122;28;20273;-72
2021/12/30 06:14:54;;;;;;;0.57;0.40;;;;;;;;;;4960894;28;20202;-72
2021/12/30 06:17:22;;;;;;;0.33;0.27;;;;;;;;;;4973535;28;20300;-72
2021/12/30 06:19:50;;;;;;;1.70;0.30;;;;;;;;;;4973781;28;20206;-74
2021/12/30 06:22:19;;;;;;;0.53;0.43;;;;;;;;;;4975679;28;20198;-74
2021/12/30 06:24:47;;;;;;;1.80;0.53;;;;;;;;;;4982043;28;20202;-73
2021/12/30 06:27:16;;;;;;;1.13;0.63;;;;;;;;;;4973918;28;20225;-73
2021/12/30 06:29:44;;;;;;;1.13;0.40;;;;;;;;;;4982851;28;20264;-71
2021/12/30 06:32:14;;;;;;;0.50;0.40;;;;;;;;;;4972965;28;20201;-73
2021/12/30 06:34:42;;;;;;;1.10;0.33;;;;;;;;;;4973927;28;20252;-73
2021/12/30 06:37:12;;;;;;;0.60;0.20;;;;;;;;;;4954798;29;20285;-72
2021/12/30 06:39:40;;;;;;;1.23;0.43;;;;;;;;;;4964934;28;20206;-73
2021/12/30 06:42:11;;;;;;;0.63;0.40;;;;;;;;;;4981326;28;20221;-73
2021/12/30 06:44:39;;;;;;;0.97;0.60;;;;;;;;;;4973819;28;20205;-74
2021/12/30 06:47:09;;;;;;;0.93;0.53;;;;;;;;;;4973751;28;20225;-72
2021/12/30 06:49:38;;;;;;;2.30;0.30;;;;;;;;;;4975908;28;20228;-73
2021/12/30 06:52:08;;;;;;;0.30;0.20;;;;;;;;;;4970227;28;20205;-72
2021/12/30 06:54:37;;;;;;;0.30;0.20;;;;;;;;;;4975669;28;20216;-72
2021/12/30 06:57:06;;;;;;;0.50;0.20;;;;;;;;;;4973580;28;20736;-72
2021/12/30 06:59:36;;;;;;;1.20;0.27;;;;;;;;;;4977000;28;20216;-73
2021/12/30 07:02:05;;;;;;;0.30;0.20;;;;;;;;;;4981997;28;20280;-72
2021/12/30 07:04:34;;;;;;;2.20;0.43;;;;;;;;;;4978311;28;20205;-71
2021/12/30 07:07:04;;;;;;;1.70;0.47;;;;;;;;;;4977623;28;20229;-73
2021/12/30 07:09:33;;;;;;;0.70;0.53;;;;;;;;;;4993785;28;20715;-72
2021/12/30 07:12:01;;;;;;;0.67;0.33;;;;;;;;;;4985533;28;20230;-73
2021/12/30 07:14:30;;;;;;;0.50;0.37;;;;;;;;;;4968752;28;20207;-73
2021/12/30 07:16:58;;;;;;;0.87;0.10;;;;;;;;;;4968540;28;20226;-72
2021/12/30 07:19:26;;;;;;;0.47;0.43;;;;;;;;;;4986802;28;20237;-72
2021/12/30 07:21:55;;;;;;;0.73;0.40;;;;;;;;;;4976723;28;20225;-72
2021/12/30 07:24:25;;;;;;;0.50;0.23;;;;;;;;;;4977476;28;20260;-73
2021/12/30 07:26:53;;;;;;;0.77;0.30;;;;;;;;;;4976861;28;20759;-72
2021/12/30 07:29:22;;;;;;;0.63;0.40;;;;;;;;;;4976543;28;20214;-73
2021/12/30 07:31:51;;;;;;;0.87;0.50;;;;;;;;;;4976084;28;20197;-73
2021/12/30 07:34:19;;;;;;;1.20;0.50;;;;;;;;;;4968061;28;20653;-73
2021/12/30 07:36:48;;;;;;;0.63;0.47;;;;;;;;;;4978061;28;20226;-72
2021/12/30 07:39:16;;;;;;;1.60;0.40;;;;;;;;;;4977674;28;20202;-71
2021/12/30 07:41:47;;;;;;;1.33;0.57;;;;;;;;;;4976170;28;20225;-73
2021/12/30 07:44:16;;;;;;;0.40;0.37;;;;;;;;;;4969610;28;20211;-72
2021/12/30 07:46:45;;;;;;;0.63;0.47;;;;;;;;;;4987486;28;20221;-73
2021/12/30 07:49:13;;;;;;;0.40;0.23;;;;;;;;;;4976179;28;20198;-71
2021/12/30 07:51:42;;;;;;;0.63;0.40;;;;;;;;;;4975921;28;20201;-74
2021/12/30 07:54:10;;;;;;;0.37;0.30;;;;;;;;;;4973813;28;20253;-73
2021/12/30 07:56:39;;;;;;;0.43;0.40;;;;;;;;;;4976226;28;20222;-73
2021/12/30 07:59:09;;;;;;;0.50;0.30;;;;;;;;;;4984383;28;20206;-73
2021/12/30 08:01:38;;;;;;;0.53;0.30;;;;;;;;;;4976184;28;20216;-73
2021/12/30 08:04:06;;;;;;;0.30;0.23;;;;;;;;;;4975959;28;20205;-72
2021/12/30 08:06:35;;;;;;;0.67;0.37;;;;;;;;;;4980867;28;20209;-73
2021/12/30 08:09:04;;;;;;;0.33;0.23;;;;;;;;;;4981520;28;20728;-72
2021/12/30 08:11:32;;;;;;;0.43;0.33;;;;;;;;;;4974698;28;20225;-72
2021/12/30 08:14:01;;;;;;;0.23;0.23;;;;;;;;;;4966190;28;20293;-72
2021/12/30 08:16:31;;;;;;;0.47;0.27;;;;;;;;;;4975208;28;20254;-73
2021/12/30 08:18:59;;;;;;;0.37;0.30;;;;;;;;;;4982417;28;20232;-73
2021/12/30 08:21:28;;;;;;;0.10;0.10;;;;;;;;;;4976597;28;20638;-73
2021/12/30 08:23:56;;;;;;;0.40;0.27;;;;;;;;;;4979395;28;20228;-74
2021/12/30 08:26:25;;;;;;;0.20;0.20;;;;;;;;;;4974366;28;20261;-72
2021/12/30 08:28:56;;;;;;;0.43;0.20;;;;;;;;;;4982024;28;20217;-73
2021/12/30 08:31:27;;;;;;;0.27;0.20;;;;;;;;;;4975650;28;20692;-72
2021/12/30 08:33:58;;;;;;;0.43;0.27;;;;;;;;;;4977167;28;20333;-73
2021/12/30 08:36:27;;;;;;;0.30;0.30;;;;;;;;;;4974886;28;20217;-72
2021/12/30 08:38:55;;;;;;;0.27;0.20;;;;;;;;;;4975372;28;20545;-73
2021/12/30 08:41:24;;;;;;;0.10;0.10;;;;;;;;;;4981352;28;20364;-73
2021/12/30 08:43:52;;;;;;;0.17;0.17;;;;;;;;;;4989889;28;20279;-75
2021/12/30 08:46:20;;;;;;;0.77;0.20;;;;;;;;;;4989863;28;20198;-75
2021/12/30 08:48:49;;;;;;;0.27;0.20;;;;;;;;;;4977720;28;20209;-73
2021/12/30 08:51:19;;;;;;;0.40;0.27;;;;;;;;;;4970044;28;20210;-74
2021/12/30 08:53:47;;;;;;;0.40;0.30;;;;;;;;;;4975905;28;20202;-75
2021/12/30 08:56:17;;;;;;;0.40;0.27;;;;;;;;;;4974932;28;20260;-75
2021/12/30 08:58:45;;;;;;;0.33;0.20;;;;;;;;;;4985772;28;20201;-74
2021/12/30 09:01:13;;;;;;;0.20;0.17;;;;;;;;;;4977143;28;20619;-74
2021/12/30 09:03:42;;;;;;;0.20;0.20;;;;;;;;;;4975937;28;20292;-75
2021/12/30 09:06:11;;;;;;;0.40;0.30;;;;;;;;;;4990656;28;20275;-75
2021/12/30 09:08:41;;;;;;;0.10;0.10;;;;;;;;;;4976249;28;20234;-74
2021/12/30 09:11:09;;;;;;;0.20;0.10;;;;;;;;;;4976794;28;20202;-73
2021/12/30 09:13:37;;;;;;;0.17;0.13;;;;;;;;;;4973801;28;20244;-74
2021/12/30 09:16:07;;;;;;;0.20;0.20;;;;;;;;;;4975263;28;20210;-74
2021/12/30 09:18:36;;;;;;;0.20;0.10;;;;;;;;;;4974532;28;20312;-75
2021/12/30 09:21:04;;;;;;;0.20;0.20;;;;;;;;;;4974035;28;20266;-74
2021/12/30 09:23:33;;;;;;;0.10;0.10;;;;;;;;;;4973805;28;20229;-74
2021/12/30 09:26:02;;;;;;;0.10;0.10;;;;;;;;;;4975164;28;20668;-74
2021/12/30 09:28:31;;;;;;;0.17;0.13;;;;;;;;;;4973951;28;20268;-74
2021/12/30 09:30:59;;;;;;;0.10;0.10;;;;;;;;;;4974367;28;20252;-73
2021/12/30 09:33:28;;;;;;;0.10;0.10;;;;;;;;;;4974260;28;20202;-74
2021/12/30 09:35:56;;;;;;;0.10;0.10;;;;;;;;;;4979578;28;20271;-74
2021/12/30 09:38:24;;;;;;;0.00;0.00;;;;;;;;;;4975912;28;20276;-74
2021/12/30 09:40:53;;;;;;;0.10;0.10;;;;;;;;;;4971403;28;20213;-75
2021/12/30 09:43:24;;;;;;;0.00;0.00;;;;;;;;;;4974408;28;20256;-75
2021/12/30 09:45:52;;;;;;;0.10;0.10;;;;;;;;;;4988779;28;20197;-74
2021/12/30 09:48:21;;;;;;;0.00;0.00;;;;;;;;;;4977608;28;20226;-75
2021/12/30 09:50:50;;;;;;;0.00;0.00;;;;;;;;;;4979516;28;20251;-75
2021/12/30 09:53:19;;;;;;;0.00;0.00;;;;;;;;;;4994515;28;20224;-74
2021/12/30 09:55:48;;;;;;;0.00;0.00;;;;;;;;;;4992848;28;20210;-75
2021/12/30 09:58:17;;;;;;;0.00;0.00;;;;;;;;;;4979802;28;20221;-75
2021/12/30 10:00:47;;;;;;;0.00;0.00;;;;;;;;;;4978619;28;20704;-75
2021/12/30 10:03:16;;;;;;;0.00;0.00;;;;;;;;;;4974596;28;20221;-75
2021/12/30 10:05:44;;;;;;;0.00;0.00;;;;;;;;;;4974898;28;20209;-73
2021/12/30 10:08:15;;;;;;;0.00;0.00;;;;;;;;;;4993988;28;20229;-73
2021/12/30 10:10:46;;;;;;;0.00;0.00;;;;;;;;;;4978037;28;20206;-74
2021/12/30 10:13:19;;;;;;;0.00;0.00;;;;;;;;;;4968338;28;20206;-74
2021/12/30 10:15:51;;;;;;;0.00;0.00;;;;;;;;;;4975662;28;20271;-75
2021/12/30 10:18:22;;;;;;;0.00;0.00;;;;;;;;;;4982977;28;20252;-76
2021/12/30 10:20:52;;;;;;;0.00;0.00;;;;;;;;;;4972697;28;20197;-74
2021/12/30 10:23:22;;;;;;;0.00;0.00;;;;;;;;;;4974198;28;20236;-74
2021/12/30 10:25:52;;;;;;;0.00;0.00;;;;;;;;;;4973079;28;20289;-74
2021/12/30 10:28:27;;;;;;;0.00;0.00;;;;;;;;;;4972848;28;20244;-75
2021/12/30 10:30:59;;;;;;;0.00;0.00;;;;;;;;;;4974018;28;20205;-75
2021/12/30 10:33:29;;;;;;;0.00;0.00;;;;;;;;;;4974233;28;20202;-74
2021/12/30 10:35:59;;;;;;;0.00;0.00;;;;;;;;;;4976698;28;20206;-74
2021/12/30 10:38:32;;;;;;;0.00;0.00;;;;;;;;;;4977703;28;20217;-75
2021/12/30 10:41:04;;;;;;;0.00;0.00;;;;;;;;;;4977900;28;20680;-74
2021/12/30 10:43:45;;;;;;;0.00;0.00;;;;;;;;;;4977774;28;20252;-74
2021/12/30 10:46:17;;;;;;;0.00;0.00;;;;;;;;;;4977906;28;20213;-74
2021/12/30 10:48:51;;;;;;;0.00;0.00;;;;;;;;;;4977794;28;20204;-74
2021/12/30 10:51:22;;;;;;;0.00;0.00;;;;;;;;;;4977503;28;20206;-75
2021/12/30 10:53:53;;;;;;;0.00;0.00;;;;;;;;;;4977740;28;20244;-73
2021/12/30 10:56:28;;;;;;;0.00;0.00;;;;;;;;;;4977591;28;20209;-74
2021/12/30 10:59:09;;;;;;;0.00;0.00;;;;;;;;;;4960364;28;20212;-72
2021/12/30 11:01:40;;;;;;;0.00;0.00;;;;;;;;;;4977163;28;20563;-75
2021/12/30 11:04:11;;;;;;;0.00;0.00;;;;;;;;;;4977235;28;20229;-73
2021/12/30 11:06:41;;;;;;;0.00;0.00;;;;;;;;;;4977433;28;20221;-73
2021/12/30 11:09:11;;;;;;;0.00;0.00;;;;;;;;;;4977289;28;20571;-72
2021/12/30 11:11:44;;;;;;;0.00;0.00;;;;;;;;;;4977208;28;20202;-75
2021/12/30 11:14:14;;;;;;;0.00;0.00;;;;;;;;;;4977502;28;20213;-75
2021/12/30 11:17:04;;;;;;;0.00;0.00;;;;;;;;;;4977322;28;20545;-74
2021/12/30 11:19:36;;;;;;;0.00;0.00;;;;;;;;;;4975767;28;20197;-73
2021/12/30 11:22:07;;;;;;;0.00;0.00;;;;;;;;;;4977279;28;20221;-73
2021/12/30 11:24:36;;;;;;;0.00;0.00;;;;;;;;;;4976875;28;20291;-73
2021/12/30 11:27:08;;;;;;;0.00;0.00;;;;;;;;;;4976833;28;20704;-75
2021/12/30 11:29:37;;;;;;;0.00;0.00;;;;;;;;;;4976777;28;20229;-73
2021/12/30 11:32:07;;;;;;;0.00;0.00;;;;;;;;;;4976863;28;20248;-75
2021/12/30 11:34:38;;;;;;;0.00;0.00;;;;;;;;;;4976992;28;20198;-74
2021/12/30 11:37:08;;;;;;;0.00;0.00;;;;;;;;;;4976947;28;20225;-75
2021/12/30 11:39:42;;;;;;;0.00;0.00;;;;;;;;;;4976722;28;20294;-74
2021/12/30 11:42:13;;;;;;;0.00;0.00;;;;;;;;;;4976928;28;20206;-73
2021/12/30 11:44:43;;;;;;;0.00;0.00;;;;;;;;;;4977128;28;20308;-74
2021/12/30 11:47:31;;;;;;;0.00;0.00;;;;;;;;;;4975137;28;20221;-73
2021/12/30 11:50:03;;;;;;;0.10;0.10;;;;;;;;;;4963019;28;20201;-74
2021/12/30 11:52:56;;;;;;;0.00;0.00;;;;;;;;;;4976706;28;20206;-75
2021/12/30 11:55:58;;;;;;;0.10;0.00;;;;;;;;;;4958422;28;20621;-74
2021/12/30 11:58:40;;;;;;;0.10;0.10;;;;;;;;;;4897950;29;20236;-73
2021/12/30 12:01:27;;;;;;;0.10;0.07;;;;;;;;;;4897446;29;20208;-75
2021/12/30 12:03:58;;;;;;;0.10;0.10;;;;;;;;;;4938291;28;20221;-75
2021/12/30 12:06:46;;;;;;;0.03;0.03;;;;;;;;;;4976574;28;20217;-74
2021/12/30 12:09:32;;;;;;;0.17;0.17;;;;;;;;;;4976133;28;20217;-74
2021/12/30 12:12:03;;;;;;;0.10;0.10;;;;;;;;;;4976299;28;20197;-73
2021/12/30 12:14:34;;;;;;;0.10;0.10;;;;;;;;;;4976325;28;20209;-74
2021/12/30 12:17:04;;;;;;;0.00;0.00;;;;;;;;;;4976163;28;20250;-76
2021/12/30 12:19:36;;;;;;;0.10;0.10;;;;;;;;;;4975919;28;20210;-74
2021/12/30 12:22:08;;;;;;;0.10;0.10;;;;;;;;;;4976096;28;20198;-73
2021/12/30 12:24:41;;;;;;;0.17;0.10;;;;;;;;;;4976224;28;20225;-73
2021/12/30 12:27:12;;;;;;;0.23;0.10;;;;;;;;;;4975989;28;20229;-76
2021/12/30 12:29:48;;;;;;;0.23;0.20;;;;;;;;;;4975591;28;20213;-73
2021/12/30 12:32:19;;;;;;;0.13;0.13;;;;;;;;;;4975751;28;20584;-76
2021/12/30 12:34:50;;;;;;;0.20;0.20;;;;;;;;;;4975708;28;20253;-73
2021/12/30 12:37:40;;;;;;;0.10;0.10;;;;;;;;;;4975645;28;20305;-75
2021/12/30 12:40:12;;;;;;;0.23;0.23;;;;;;;;;;4975612;28;20260;-75
2021/12/30 12:42:58;;;;;;;0.20;0.20;;;;;;;;;;4975817;28;20234;-75
2021/12/30 12:45:27;;;;;;;0.20;0.20;;;;;;;;;;4975762;28;20257;-74
2021/12/30 12:48:15;;;;;;;0.40;0.30;;;;;;;;;;4976722;28;20317;-74
2021/12/30 12:50:45;;;;;;;0.77;0.37;;;;;;;;;;4975491;28;20213;-73
2021/12/30 12:53:21;;;;;;;0.40;0.20;;;;;;;;;;4975439;28;20284;-74
2021/12/30 12:55:52;;;;;;;0.83;0.40;;;;;;;;;;4960398;28;20252;-75
2021/12/30 12:58:21;;;;;;;0.33;0.33;;;;;;;;;;4974788;28;20225;-73
2021/12/30 13:00:51;;;;;;;0.27;0.27;;;;;;;;;;4975262;28;20210;-74
2021/12/30 13:03:21;;;;;;;0.20;0.20;;;;;;;;;;4976153;28;20201;-74
2021/12/30 13:05:56;;;;;;;0.40;0.40;;;;;;;;;;4985889;28;20681;-73
2021/12/30 13:08:25;;;;;;;0.43;0.43;;;;;;;;;;4972928;28;20228;-72
2021/12/30 13:10:56;;;;;;;0.30;0.30;;;;;;;;;;4974653;28;20641;-72
2021/12/30 13:13:28;;;;;;;0.37;0.37;;;;;;;;;;4973685;28;20213;-74
2021/12/30 13:15:58;;;;;;;0.47;0.47;;;;;;;;;;4974142;28;20261;-73
2021/12/30 13:18:30;;;;;;;0.30;0.30;;;;;;;;;;4978347;28;20224;-72
2021/12/30 13:20:59;;;;;;;0.53;0.53;;;;;;;;;;4979918;28;20284;-72
2021/12/30 13:23:30;;;;;;;0.37;0.37;;;;;;;;;;4978923;28;20213;-73
2021/12/30 13:26:03;;;;;;;2.10;0.47;;;;;;;;;;4975055;28;20241;-75
2021/12/30 13:28:33;;;;;;;0.10;0.10;;;;;;;;;;4973591;28;20230;-72
2021/12/30 13:31:10;;;;;;;0.10;0.10;;;;;;;;;;4973103;28;20210;-74
2021/12/30 13:33:40;;;;;;;0.67;0.40;;;;;;;;;;4974504;28;20198;-76
2021/12/30 13:36:29;;;;;;;1.03;0.57;;;;;;;;;;4973875;28;20666;-72
2021/12/30 13:39:10;;;;;;;0.30;0.27;;;;;;;;;;4974191;28;20206;-75
2021/12/30 13:41:50;;;;;;;0.30;0.30;;;;;;;;;;4973910;28;20601;-74
2021/12/30 13:44:22;;;;;;;0.50;0.27;;;;;;;;;;4974398;28;20222;-73
2021/12/30 13:46:51;;;;;;;0.47;0.47;;;;;;;;;;4973520;28;20711;-74
2021/12/30 13:49:20;;;;;;;1.40;0.63;;;;;;;;;;4973313;28;20261;-74
2021/12/30 13:51:48;;;;;;;1.07;0.47;;;;;;;;;;4974316;28;20233;-73
2021/12/30 13:54:16;;;;;;;0.33;0.33;;;;;;;;;;4974234;28;20202;-73
2021/12/30 13:56:46;;;;;;;0.30;0.30;;;;;;;;;;4973204;28;20221;-73
2021/12/30 13:59:14;;;;;;;0.87;0.30;;;;;;;;;;4978992;28;20198;-75
2021/12/30 14:01:43;;;;;;;0.90;0.33;;;;;;;;;;4978015;28;20205;-74
2021/12/30 14:04:17;;;;;;;0.37;0.37;;;;;;;;;;4970042;28;20206;-74
2021/12/30 14:07:00;;;;;;;0.50;0.49;;;;;;;;;;4958115;28;10000865;-74
2021/12/30 14:09:29;;;;;;;0.30;0.30;;;;;;;;;;4971470;28;20991;-75
2021/12/30 14:12:09;;;;;;;0.57;0.57;;;;;;;;;;4968938;28;20288;-74
2021/12/30 14:14:39;;;;;;;1.70;0.63;;;;;;;;;;4967592;28;20189;-73
2021/12/30 14:17:11;;;;;;;0.57;0.30;;;;;;;;;;4969842;28;20248;-74
2021/12/30 14:19:41;;;;;;;0.37;0.37;;;;;;;;;;4967255;28;20565;-74
2021/12/30 14:22:12;;;;;;;0.50;0.33;;;;;;;;;;4967929;28;20209;-75
2021/12/30 14:24:42;;;;;;;0.30;0.30;;;;;;;;;;4966859;28;20225;-73
2021/12/30 14:27:16;;;;;;;0.43;0.43;;;;;;;;;;4970845;28;20349;-75
2021/12/30 14:29:45;;;;;;;1.03;0.50;;;;;;;;;;4970511;28;20209;-73
2021/12/30 14:32:16;;;;;;;0.23;0.23;;;;;;;;;;4971308;28;20209;-74
2021/12/30 14:34:48;;;;;;;0.43;0.33;;;;;;;;;;4971957;28;20280;-72
2021/12/30 14:37:22;;;;;;;0.73;0.30;;;;;;;;;;4970900;28;20768;-73
2021/12/30 14:39:52;;;;;;;0.50;0.37;;;;;;;;;;4966950;28;20216;-72
2021/12/30 14:42:27;;;;;;;0.27;0.23;;;;;;;;;;4971173;28;20202;-73
2021/12/30 14:44:57;;;;;;;0.40;0.23;;;;;;;;;;4967114;28;20693;-73
2021/12/30 14:47:27;;;;;;;0.10;0.10;;;;;;;;;;4971102;28;20616;-73
2021/12/30 14:49:59;;;;;;;0.83;0.30;;;;;;;;;;4972131;28;20201;-73
2021/12/30 14:52:30;;;;;;;0.93;0.33;;;;;;;;;;4967433;28;20581;-75
2021/12/30 14:54:59;;;;;;;0.47;0.47;;;;;;;;;;4970325;28;20256;-76
2021/12/30 14:57:32;;;;;;;0.20;0.20;;;;;;;;;;4969752;28;20230;-73
2021/12/30 15:00:01;;;;;;;0.40;0.30;;;;;;;;;;4975516;28;20213;-76
2021/12/30 15:02:32;;;;;;;0.10;0.10;;;;;;;;;;4976067;28;20728;-73